Time;durP1;ratioP1;P1;durP2;ratioP2;P2;SDS_P1;SDS_P2;PMS_P1;PMS_P2;Temp;Humidity;BMP_temperature;BMP_pressure;BME280_temperature;BME280_humidity;BME280_pressure;Samples;Min_cycle;Max_cycle;Signal;HPM_P1;HPM_P2
2021/07/25 00:00:57;;;;;;;;;;;;;;;18.79;54.04;100702.17;1663360;86;20148;-77
2021/07/25 00:03:24;;;;;;;;;;;;;;;18.75;54.13;100694.53;1648320;86;20163;-77
2021/07/25 00:05:50;;;;;;;;;;;;;;;18.71;54.23;100695.64;1667891;85;20523;-77
2021/07/25 00:08:16;;;;;;;;;;;;;;;18.69;54.28;100686.55;1667344;86;20153;-77
2021/07/25 00:10:44;;;;;;;;;;;;;;;18.66;54.33;100685.38;1664583;85;20766;-77
2021/07/25 00:13:11;;;;;;;;;;;;;;;18.62;54.38;100681.21;1646658;86;20139;-77
2021/07/25 00:15:37;;;;;;;;;;;;;;;18.62;54.45;100675.13;1667634;84;20089;-77
2021/07/25 00:18:18;;;;;;;;;;;;;;;18.61;54.47;100673.43;1667157;85;20515;-77
2021/07/25 00:20:44;;;;;;;;;;;;;;;18.58;54.57;100663.06;1659912;85;20183;-77
2021/07/25 00:23:17;;;;;;;;;;;;;;;18.57;54.62;100652.20;1667806;85;20211;-77
2021/07/25 00:25:46;;;;;;;;;;;;;;;18.56;54.65;100646.58;1667916;85;20570;-77
2021/07/25 00:28:16;;;;;;;;;;;;;;;18.51;54.76;100652.89;1661564;85;20117;-77
2021/07/25 00:30:39;;;;;;;;;;;;;;;18.52;54.84;100655.05;1664511;86;20140;-77
2021/07/25 00:33:05;;;;;;;;;;;;;;;18.51;54.83;100653.34;1660301;86;20876;-77
2021/07/25 00:35:31;;;;;;;;;;;;;;;18.49;54.90;100644.72;1665286;86;20743;-77
2021/07/25 00:37:57;;;;;;;;;;;;;;;18.47;54.89;100642.17;1656413;85;20694;-77
2021/07/25 00:40:39;;;;;;;;;;;;;;;18.45;55.00;100636.63;1662997;85;20192;-77
2021/07/25 00:43:05;;;;;;;;;;;;;;;18.43;55.03;100634.53;1655303;85;20553;-77
2021/07/25 00:45:31;;;;;;;;;;;;;;;18.38;55.16;100626.91;1653040;85;20204;-77
2021/07/25 00:47:57;;;;;;;;;;;;;;;18.36;55.21;100626.13;1667803;85;20140;-77
2021/07/25 00:50:27;;;;;;;;;;;;;;;18.33;55.20;100623.66;1656014;86;20467;-77
2021/07/25 00:52:53;;;;;;;;;;;;;;;18.24;55.26;100615.39;1655128;85;20139;-77
2021/07/25 00:55:20;;;;;;;;;;;;;;;18.17;55.33;100618.33;1664618;86;20149;-77
2021/07/25 00:57:47;;;;;;;;;;;;;;;18.12;55.41;100616.84;1667623;86;20456;-77
2021/07/25 01:00:14;;;;;;;;;;;;;;;18.06;55.53;100613.21;1658059;85;20574;-77
2021/07/25 01:02:53;;;;;;;;;;;;;;;18.03;55.61;100612.05;1651988;85;20538;-77
2021/07/25 01:05:22;;;;;;;;;;;;;;;18.01;55.72;100610.81;1663026;85;20475;-77
2021/07/25 01:08:01;;;;;;;;;;;;;;;17.96;55.73;100610.63;1659964;85;20780;-77
2021/07/25 01:10:30;;;;;;;;;;;;;;;17.95;55.90;100615.02;1663844;85;20489;-77
2021/07/25 01:12:58;;;;;;;;;;;;;;;17.98;55.96;100620.56;1664894;85;20629;-77
2021/07/25 01:15:26;;;;;;;;;;;;;;;17.99;55.87;100617.03;1662934;85;20469;-77
2021/07/25 01:17:55;;;;;;;;;;;;;;;17.95;56.00;100612.41;1667737;85;20161;-77
2021/07/25 01:20:23;;;;;;;;;;;;;;;17.97;56.12;100618.88;1662988;86;20425;-77
2021/07/25 01:22:52;;;;;;;;;;;;;;;17.99;56.17;100609.18;1663647;85;20133;-77
2021/07/25 01:25:21;;;;;;;;;;;;;;;18.01;56.16;100605.58;1655178;86;20515;-77
2021/07/25 01:27:57;;;;;;;;;;;;;;;18.01;56.20;100606.88;1654747;86;20972;-77
2021/07/25 01:30:26;;;;;;;;;;;;;;;17.98;56.05;100602.25;1644555;86;20554;-77
2021/07/25 01:32:55;;;;;;;;;;;;;;;17.88;56.26;100601.83;1661536;85;20181;-77
2021/07/25 01:35:22;;;;;;;;;;;;;;;17.83;56.41;100600.73;1649081;86;20476;-77
2021/07/25 01:37:48;;;;;;;;;;;;;;;17.78;56.37;100596.63;1651955;86;20456;-77
2021/07/25 01:40:22;;;;;;;;;;;;;;;17.73;56.59;100593.37;1659450;86;20161;-77
2021/07/25 01:42:48;;;;;;;;;;;;;;;17.68;56.60;100590.13;1661287;86;20141;-77
2021/07/25 01:45:15;;;;;;;;;;;;;;;17.63;56.75;100587.72;1656061;86;20464;-77
2021/07/25 01:47:42;;;;;;;;;;;;;;;17.64;56.88;100586.80;1655003;86;20585;-77
2021/07/25 01:50:09;;;;;;;;;;;;;;;17.68;56.94;100583.13;1655713;86;20735;-77
2021/07/25 01:52:35;;;;;;;;;;;;;;;17.70;56.92;100583.91;1658851;85;20465;-77
2021/07/25 01:55:02;;;;;;;;;;;;;;;17.71;56.98;100588.67;1648876;86;20554;-77
2021/07/25 01:57:28;;;;;;;;;;;;;;;17.72;57.04;100584.69;1649878;86;20563;-77
2021/07/25 01:59:54;;;;;;;;;;;;;;;17.75;57.09;100587.62;1654369;86;20195;-77
2021/07/25 02:02:35;;;;;;;;;;;;;;;17.75;57.02;100581.08;1645993;86;20139;-77
2021/07/25 02:05:01;;;;;;;;;;;;;;;17.72;57.14;100578.15;1650327;86;20504;-77
2021/07/25 02:07:27;;;;;;;;;;;;;;;17.73;57.22;100578.53;1645099;85;20223;-77
2021/07/25 02:09:54;;;;;;;;;;;;;;;17.74;57.28;100575.46;1644604;86;20155;-77
2021/07/25 02:12:20;;;;;;;;;;;;;;;17.74;57.26;100571.53;1638174;86;20633;-77
2021/07/25 02:14:58;;;;;;;;;;;;;;;17.70;57.34;100576.06;1649576;85;20586;-77
2021/07/25 02:17:25;;;;;;;;;;;;;;;17.70;57.38;100575.21;1654889;86;20530;-77
2021/07/25 02:19:51;;;;;;;;;;;;;;;17.69;57.43;100576.13;1657540;86;20507;-77
2021/07/25 02:22:17;;;;;;;;;;;;;;;17.67;57.46;100581.46;1646331;86;20602;-77
2021/07/25 02:24:43;;;;;;;;;;;;;;;17.65;57.47;100585.91;1619426;85;20299;-77
2021/07/25 02:27:09;;;;;;;;;;;;;;;17.64;57.49;100578.95;1621639;87;20582;-77
2021/07/25 02:29:35;;;;;;;;;;;;;;;17.62;57.54;100582.09;1635355;86;20214;-77
2021/07/25 02:32:01;;;;;;;;;;;;;;;17.58;57.64;100575.77;1615757;87;20093;-77
2021/07/25 02:34:28;;;;;;;;;;;;;;;17.58;57.75;100579.69;1624914;87;20217;-77
2021/07/25 02:36:54;;;;;;;;;;;;;;;17.57;57.78;100582.77;1626921;85;20261;-77
2021/07/25 02:39:20;;;;;;;;;;;;;;;17.55;57.78;100585.91;1623499;86;20264;-77
2021/07/25 02:42:00;;;;;;;;;;;;;;;17.54;57.91;100579.83;1619030;87;20184;-77
2021/07/25 02:44:26;;;;;;;;;;;;;;;17.52;57.96;100584.28;1614119;86;20219;-77
2021/07/25 02:46:52;;;;;;;;;;;;;;;17.49;57.97;100579.64;1634091;87;20211;-77
2021/07/25 02:49:18;;;;;;;;;;;;;;;17.49;58.03;100582.26;1625467;86;20235;-77
2021/07/25 02:51:44;;;;;;;;;;;;;;;17.48;58.12;100586.64;1623292;87;20269;-77
2021/07/25 02:54:10;;;;;;;;;;;;;;;17.47;58.17;100583.64;1612208;87;20212;-77
2021/07/25 02:56:36;;;;;;;;;;;;;;;17.48;58.17;100584.48;1635907;87;20186;-77
2021/07/25 02:59:02;;;;;;;;;;;;;;;17.47;57.93;100588.02;1623296;87;20837;-77
2021/07/25 03:01:28;;;;;;;;;;;;;;;17.39;58.26;100587.51;1627607;87;21128;-77
2021/07/25 03:03:54;;;;;;;;;;;;;;;17.39;58.38;100583.59;1615793;87;20673;-77
2021/07/25 03:06:26;;;;;;;;;;;;;;;17.37;58.39;100581.05;1606618;86;20213;-77
2021/07/25 03:08:52;;;;;;;;;;;;;;;17.35;58.44;100587.25;1621505;87;20426;-77
2021/07/25 03:11:21;;;;;;;;;;;;;;;17.34;58.56;100587.71;1630545;86;20207;-77
2021/07/25 03:13:46;;;;;;;;;;;;;;;17.35;58.60;100582.02;1612033;87;20111;-77
2021/07/25 03:16:12;;;;;;;;;;;;;;;17.36;58.67;100575.88;1628805;87;20606;-77
2021/07/25 03:18:38;;;;;;;;;;;;;;;17.34;58.73;100579.87;1626148;87;20180;-77
2021/07/25 03:21:05;;;;;;;;;;;;;;;17.31;58.74;100574.78;1637923;86;20113;-77
2021/07/25 03:23:32;;;;;;;;;;;;;;;17.35;58.85;100575.48;1640833;85;20144;-77
2021/07/25 03:25:58;;;;;;;;;;;;;;;17.34;58.87;100573.34;1663498;85;20144;-77
2021/07/25 03:28:24;;;;;;;;;;;;;;;17.35;58.91;100574.19;1666027;85;20125;-77
2021/07/25 03:30:51;;;;;;;;;;;;;;;17.37;58.95;100577.58;1666164;86;20165;-77
2021/07/25 03:33:19;;;;;;;;;;;;;;;17.38;59.03;100567.05;1652677;85;20236;-77
2021/07/25 03:35:46;;;;;;;;;;;;;;;17.38;58.97;100564.44;1473768;84;10000313;-77
2021/07/25 03:38:13;;;;;;;;;;;;;;;17.35;59.07;100563.73;1663184;85;20148;-77
2021/07/25 03:40:42;;;;;;;;;;;;;;;17.32;59.16;100561.25;1664157;85;20208;-77
2021/07/25 03:43:06;;;;;;;;;;;;;;;17.33;59.29;100560.34;1665619;86;20220;-77
2021/07/25 03:45:32;;;;;;;;;;;;;;;17.36;59.34;100553.20;1666134;85;20876;-77
2021/07/25 03:48:00;;;;;;;;;;;;;;;17.33;59.23;100559.88;1662693;85;20582;-77
2021/07/25 03:50:26;;;;;;;;;;;;;;;17.29;59.44;100564.85;1664119;85;20184;-77
2021/07/25 03:52:52;;;;;;;;;;;;;;;17.27;59.54;100558.84;1665453;85;20255;-77
2021/07/25 03:55:19;;;;;;;;;;;;;;;17.31;59.61;100570.86;1663010;86;20223;-77
2021/07/25 03:57:45;;;;;;;;;;;;;;;17.33;59.64;100572.09;1666096;85;20225;-77
2021/07/25 04:00:12;;;;;;;;;;;;;;;17.37;59.78;100580.19;1662799;85;20191;-77
2021/07/25 04:02:44;;;;;;;;;;;;;;;17.44;59.80;100581.16;1665791;85;20244;-77
2021/07/25 04:05:11;;;;;;;;;;;;;;;17.49;59.80;100580.95;1666337;85;20249;-77
2021/07/25 04:07:37;;;;;;;;;;;;;;;17.55;59.84;100591.14;1666455;85;20208;-77
2021/07/25 04:10:07;;;;;;;;;;;;;;;17.60;59.64;100595.70;1666058;86;20216;-77
2021/07/25 04:12:34;;;;;;;;;;;;;;;17.61;59.90;100597.86;1666234;85;20219;-77
2021/07/25 04:15:01;;;;;;;;;;;;;;;17.70;59.98;100604.83;1665854;85;20162;-77
2021/07/25 04:17:28;;;;;;;;;;;;;;;17.78;59.94;100602.71;1665510;84;20319;-77
2021/07/25 04:19:54;;;;;;;;;;;;;;;17.84;59.88;100597.20;1665957;85;20535;-77
2021/07/25 04:22:20;;;;;;;;;;;;;;;17.90;60.06;100600.45;1659081;85;20370;-77
2021/07/25 04:24:46;;;;;;;;;;;;;;;17.96;60.06;100592.31;1666076;85;20216;-77
2021/07/25 04:27:13;;;;;;;;;;;;;;;18.01;60.04;100594.27;1660074;85;20152;-77
2021/07/25 04:29:40;;;;;;;;;;;;;;;18.03;59.97;100586.73;1661990;85;20205;-77
2021/07/25 04:32:07;;;;;;;;;;;;;;;18.07;60.15;100581.73;1659264;85;20162;-77
2021/07/25 04:34:33;;;;;;;;;;;;;;;18.13;60.11;100576.67;1664903;85;20160;-77
2021/07/25 04:37:01;;;;;;;;;;;;;;;18.15;60.12;100576.98;1658791;85;20510;-77
2021/07/25 04:39:30;;;;;;;;;;;;;;;18.19;59.75;100581.62;1665904;86;20260;-77
2021/07/25 04:41:57;;;;;;;;;;;;;;;18.20;60.23;100583.28;1664586;85;20216;-77
2021/07/25 04:44:42;;;;;;;;;;;;;;;18.27;60.34;100581.22;1664382;85;20197;-77
2021/07/25 04:47:11;;;;;;;;;;;;;;;18.40;60.19;100575.78;1662257;86;20129;-77
2021/07/25 04:49:41;;;;;;;;;;;;;;;18.48;60.33;100577.09;1434206;84;10000420;-77
2021/07/25 04:52:10;;;;;;;;;;;;;;;18.58;60.44;100577.49;1653199;85;20124;-77
2021/07/25 04:54:36;;;;;;;;;;;;;;;18.69;60.44;100578.30;1660962;85;20139;-77
2021/07/25 04:57:05;;;;;;;;;;;;;;;18.78;60.35;100580.43;1662829;86;37427;-77
2021/07/25 04:59:49;;;;;;;;;;;;;;;18.86;60.45;100573.03;1667105;85;20129;-77
2021/07/25 05:02:24;;;;;;;;;;;;;;;18.96;60.34;100575.56;1662487;86;20136;-77
2021/07/25 05:04:49;;;;;;;;;;;;;;;19.07;60.37;100580.26;1661652;86;20145;-77
2021/07/25 05:07:15;;;;;;;;;;;;;;;19.16;60.20;100575.39;1666545;85;20169;-77
2021/07/25 05:09:42;;;;;;;;;;;;;;;19.25;60.19;100568.79;1658790;85;20121;-77
2021/07/25 05:12:44;;;;;;;;;;;;;;;19.46;60.51;100572.05;1667314;86;20137;-79
2021/07/25 05:15:15;;;;;;;;;;;;;;;19.72;60.38;100572.00;1665677;86;20136;-79
2021/07/25 05:17:53;;;;;;;;;;;;;;;20.26;60.54;100571.16;1665257;85;20149;-79
2021/07/25 05:20:19;;;;;;;;;;;;;;;20.82;60.21;100565.22;1666855;86;20153;-79
2021/07/25 05:23:22;;;;;;;;;;;;;;;21.07;59.85;100563.29;1663815;86;20137;-79
2021/07/25 05:25:53;;;;;;;;;;;;;;;21.14;59.66;100568.09;1669883;85;20563;-79
2021/07/25 05:28:21;;;;;;;;;;;;;;;21.19;59.62;100569.13;1667212;85;20228;-79
2021/07/25 05:30:52;;;;;;;;;;;;;;;21.23;59.49;100565.87;1667608;85;20589;-80
2021/07/25 05:33:20;;;;;;;;;;;;;;;21.23;59.49;100561.45;1669497;85;20609;-80
2021/07/25 05:35:47;;;;;;;;;;;;;;;21.31;59.53;100554.41;1666419;85;20171;-80
2021/07/25 05:38:14;;;;;;;;;;;;;;;21.37;59.53;100564.05;1668665;85;20191;-80
2021/07/25 05:40:40;;;;;;;;;;;;;;;21.47;59.69;100565.66;1669087;85;20232;-80
2021/07/25 05:43:06;;;;;;;;;;;;;;;21.80;60.06;100569.28;1669366;85;20216;-80
2021/07/25 05:45:32;;;;;;;;;;;;;;;22.29;59.69;100572.25;1671468;85;20208;-80
2021/07/25 05:47:58;;;;;;;;;;;;;;;22.82;59.81;100569.64;1671128;85;20235;-80
2021/07/25 05:50:24;;;;;;;;;;;;;;;23.50;59.42;100566.63;1668733;85;20208;-80
2021/07/25 05:52:53;;;;;;;;;;;;;;;24.16;59.19;100568.03;1669316;85;20255;-78
2021/07/25 05:55:21;;;;;;;;;;;;;;;24.71;59.11;100552.87;1667961;85;20563;-78
2021/07/25 05:57:49;;;;;;;;;;;;;;;25.34;58.82;100553.69;1670193;85;20212;-75
2021/07/25 06:00:15;;;;;;;;;;;;;;;26.00;58.68;100557.67;1669552;85;20216;-75
2021/07/25 06:02:58;;;;;;;;;;;;;;;26.69;58.40;100552.33;1667844;85;20226;-75
2021/07/25 06:05:26;;;;;;;;;;;;;;;27.28;58.17;100552.17;1668988;85;20592;-75
2021/07/25 06:07:52;;;;;;;;;;;;;;;27.66;57.48;100556.79;1656737;85;20140;-75
2021/07/25 06:10:19;;;;;;;;;;;;;;;27.85;57.51;100554.67;1653974;85;20124;-75
2021/07/25 06:12:46;;;;;;;;;;;;;;;27.83;57.54;100549.98;1622991;87;20093;-75
2021/07/25 06:15:13;;;;;;;;;;;;;;;27.72;57.05;100558.06;1667949;85;20125;-75
2021/07/25 06:17:39;;;;;;;;;;;;;;;27.82;57.40;100563.75;1662861;85;20120;-75
2021/07/25 06:20:07;;;;;;;;;;;;;;;27.93;57.08;100559.66;1665467;85;20139;-75
2021/07/25 06:22:41;;;;;;;;;;;;;;;28.17;56.87;100562.38;1667376;85;20437;-75
2021/07/25 06:25:08;;;;;;;;;;;;;;;28.30;56.76;100562.49;1661937;85;20113;-76
2021/07/25 06:27:34;;;;;;;;;;;;;;;28.31;56.63;100563.34;1660943;85;20233;-76
2021/07/25 06:30:00;;;;;;;;;;;;;;;28.49;56.49;100559.48;1658904;85;20180;-76
2021/07/25 06:32:26;;;;;;;;;;;;;;;28.75;56.55;100561.03;1664793;85;20223;-76
2021/07/25 06:34:52;;;;;;;;;;;;;;;28.99;56.22;100557.45;1666097;85;20279;-76
2021/07/25 06:37:18;;;;;;;;;;;;;;;29.22;55.77;100552.09;1657958;85;20211;-76
2021/07/25 06:39:44;;;;;;;;;;;;;;;29.42;55.80;100554.70;1664834;85;20184;-76
2021/07/25 06:42:11;;;;;;;;;;;;;;;29.49;55.50;100549.14;1658281;85;20216;-76
2021/07/25 06:44:37;;;;;;;;;;;;;;;29.63;55.21;100557.45;1661512;85;20515;-76
2021/07/25 06:47:04;;;;;;;;;;;;;;;29.66;55.40;100557.64;1658552;85;20508;-76
2021/07/25 06:49:29;;;;;;;;;;;;;;;29.42;54.83;100552.88;1665533;85;20212;-76
2021/07/25 06:51:55;;;;;;;;;;;;;;;29.55;54.94;100553.88;1664806;85;20254;-76
2021/07/25 06:54:25;;;;;;;;;;;;;;;29.73;54.72;100554.72;1658937;84;20357;-76
2021/07/25 06:56:51;;;;;;;;;;;;;;;29.75;54.46;100547.91;1659115;85;20171;-76
2021/07/25 06:59:19;;;;;;;;;;;;;;;29.69;54.37;100551.17;1662625;84;20246;-76
2021/07/25 07:01:46;;;;;;;;;;;;;;;29.87;54.32;100548.05;1664939;85;20602;-76
2021/07/25 07:04:12;;;;;;;;;;;;;;;30.06;54.14;100541.77;1658429;84;20273;-76
2021/07/25 07:06:39;;;;;;;;;;;;;;;30.27;53.87;100542.28;1664965;84;20156;-76
2021/07/25 07:09:05;;;;;;;;;;;;;;;30.46;53.78;100534.61;1665991;84;20540;-76
2021/07/25 07:11:31;;;;;;;;;;;;;;;30.56;53.37;100537.52;1658996;84;20195;-76
2021/07/25 07:13:58;;;;;;;;;;;;;;;30.60;53.49;100536.75;1661777;85;20386;-76
2021/07/25 07:16:24;;;;;;;;;;;;;;;30.96;53.30;100548.15;1658086;85;20444;-76
2021/07/25 07:18:50;;;;;;;;;;;;;;;31.13;52.86;100547.28;1665873;84;20252;-76
2021/07/25 07:21:16;;;;;;;;;;;;;;;31.12;52.77;100546.91;1665954;84;20216;-76
2021/07/25 07:23:42;;;;;;;;;;;;;;;30.95;51.91;100537.97;1655467;84;20360;-76
2021/07/25 07:26:08;;;;;;;;;;;;;;;30.80;52.49;100536.86;1659838;84;20253;-76
2021/07/25 07:28:37;;;;;;;;;;;;;;;30.78;52.45;100530.01;1658449;85;20620;-76
2021/07/25 07:31:03;;;;;;;;;;;;;;;30.51;52.29;100533.65;1665889;85;20719;-76
2021/07/25 07:33:29;;;;;;;;;;;;;;;30.28;52.07;100534.12;1665680;86;20196;-76
2021/07/25 07:35:55;;;;;;;;;;;;;;;30.05;52.28;100536.94;1665310;86;20164;-76
2021/07/25 07:38:21;;;;;;;;;;;;;;;29.76;52.00;100525.60;1625424;87;20296;-76
2021/07/25 07:40:47;;;;;;;;;;;;;;;29.58;51.87;100525.59;1663245;86;20216;-76
2021/07/25 07:43:16;;;;;;;;;;;;;;;29.44;51.76;100520.27;1665951;86;20225;-76
2021/07/25 07:45:43;;;;;;;;;;;;;;;29.32;51.58;100525.41;1664390;86;20570;-76
2021/07/25 07:48:09;;;;;;;;;;;;;;;29.20;51.29;100518.59;1659853;86;20196;-76
2021/07/25 07:50:36;;;;;;;;;;;;;;;28.91;51.01;100520.05;1656651;86;20127;-76
2021/07/25 07:53:03;;;;;;;;;;;;;;;28.65;51.19;100522.47;1665130;84;20129;-76
2021/07/25 07:55:29;;;;;;;;;;;;;;;28.54;51.11;100516.84;1658988;86;20157;-80
2021/07/25 07:57:55;;;;;;;;;;;;;;;28.32;50.95;100517.98;1665079;85;20145;-75
2021/07/25 08:00:21;;;;;;;;;;;;;;;28.18;51.08;100512.21;1662813;84;20125;-75
2021/07/25 08:02:47;;;;;;;;;;;;;;;28.10;51.08;100523.55;1666969;84;20207;-76
2021/07/25 08:05:13;;;;;;;;;;;;;;;28.09;51.10;100523.19;1665688;85;20231;-76
2021/07/25 08:07:39;;;;;;;;;;;;;;;28.03;50.69;100522.94;1665661;84;20138;-77
2021/07/25 08:10:07;;;;;;;;;;;;;;;27.96;50.64;100523.98;1667277;85;20799;-77
2021/07/25 08:12:33;;;;;;;;;;;;;;;27.97;50.70;100519.02;1662720;85;20171;-76
2021/07/25 08:15:00;;;;;;;;;;;;;;;28.13;50.63;100514.45;1666570;85;20141;-76
2021/07/25 08:17:26;;;;;;;;;;;;;;;28.21;50.61;100508.81;1650082;85;20155;-76
2021/07/25 08:19:52;;;;;;;;;;;;;;;28.35;50.56;100510.21;1667456;86;20124;-76
2021/07/25 08:22:19;;;;;;;;;;;;;;;28.32;50.46;100514.48;1635327;86;20124;-76
2021/07/25 08:24:45;;;;;;;;;;;;;;;28.30;50.35;100512.45;1666502;85;20171;-76
2021/07/25 08:27:11;;;;;;;;;;;;;;;28.31;50.18;100505.66;1647709;86;20229;-76
2021/07/25 08:29:38;;;;;;;;;;;;;;;28.23;50.36;100508.19;1656188;86;20208;-76
2021/07/25 08:32:05;;;;;;;;;;;;;;;28.29;50.30;100506.30;1650000;86;20221;-76
2021/07/25 08:34:31;;;;;;;;;;;;;;;28.36;50.32;100503.91;1653924;86;20168;-76
2021/07/25 08:36:58;;;;;;;;;;;;;;;28.37;50.28;100497.61;1650037;86;20459;-76
2021/07/25 08:39:24;;;;;;;;;;;;;;;28.28;50.13;100497.97;1647225;86;20218;-76
2021/07/25 08:42:07;;;;;;;;;;;;;;;28.20;49.88;100500.45;1652584;86;20523;-76
2021/07/25 08:44:43;;;;;;;;;;;;;;;28.13;49.97;100498.01;1650065;86;20219;-76
2021/07/25 08:47:30;;;;;;;;;;;;;;;28.05;49.98;100499.23;1643415;86;20211;-76
2021/07/25 08:50:10;;;;;;;;;;;;;;;28.01;50.06;100507.97;1655024;86;20539;-76
2021/07/25 08:52:44;;;;;;;;;;;;;;;27.94;49.95;100503.34;1641796;86;20184;-76
2021/07/25 08:55:16;;;;;;;;;;;;;;;27.82;50.11;100503.96;1645904;86;20208;-77
2021/07/25 08:57:45;;;;;;;;;;;;;;;27.77;49.96;100505.34;1649369;86;20209;-76
2021/07/25 09:00:14;;;;;;;;;;;;;;;27.73;49.98;100503.94;1658590;86;20156;-76
2021/07/25 09:02:40;;;;;;;;;;;;;;;27.74;49.90;100504.30;1644403;86;20523;-76
2021/07/25 09:05:07;;;;;;;;;;;;;;;27.78;49.89;100506.55;1657372;86;20239;-76
2021/07/25 09:07:34;;;;;;;;;;;;;;;27.77;49.97;100518.64;1654371;86;20165;-76
2021/07/25 09:10:06;;;;;;;;;;;;;;;27.85;49.98;100512.98;1655483;86;20185;-76
2021/07/25 09:12:33;;;;;;;;;;;;;;;27.93;49.93;100514.47;1644256;86;20210;-76
2021/07/25 09:15:08;;;;;;;;;;;;;;;27.99;49.86;100519.72;1648554;86;20175;-76
2021/07/25 09:17:35;;;;;;;;;;;;;;;28.09;49.90;100514.38;1659456;85;20129;-77
2021/07/25 09:20:19;;;;;;;;;;;;;;;28.20;49.77;100519.56;1657328;86;20196;-76
2021/07/25 09:22:54;;;;;;;;;;;;;;;28.27;49.51;100518.05;1652367;86;20188;-76
2021/07/25 09:25:40;;;;;;;;;;;;;;;28.25;49.48;100517.35;1643620;85;20343;-76
2021/07/25 09:28:11;;;;;;;;;;;;;;;28.29;49.69;100523.58;1623398;87;20424;-76
2021/07/25 09:30:37;;;;;;;;;;;;;;;28.38;49.71;100519.23;1622783;87;20186;-76
2021/07/25 09:33:23;;;;;;;;;;;;;;;28.48;49.65;100524.55;1629676;87;20195;-76
2021/07/25 09:35:51;;;;;;;;;;;;;;;28.51;49.42;100524.27;1620189;87;20451;-76
2021/07/25 09:38:18;;;;;;;;;;;;;;;28.51;49.19;100525.59;1630381;86;20115;-76
2021/07/25 09:40:45;;;;;;;;;;;;;;;28.50;49.36;100524.76;1609049;87;20132;-76
2021/07/25 09:43:18;;;;;;;;;;;;;;;28.46;49.32;100519.38;1617073;87;20111;-76
2021/07/25 09:45:54;;;;;;;;;;;;;;;28.47;49.29;100518.87;1608277;87;20126;-76
2021/07/25 09:48:30;;;;;;;;;;;;;;;28.55;49.44;100515.86;1624419;87;20103;-76
2021/07/25 09:51:01;;;;;;;;;;;;;;;28.65;49.22;100519.31;1630350;87;20095;-76
2021/07/25 09:53:44;;;;;;;;;;;;;;;28.71;49.19;100516.58;1619771;87;20126;-76
2021/07/25 09:56:14;;;;;;;;;;;;;;;28.67;49.21;100513.84;1619401;86;20092;-76
2021/07/25 09:58:43;;;;;;;;;;;;;;;28.67;49.16;100505.37;1631468;86;20139;-76
2021/07/25 10:01:09;;;;;;;;;;;;;;;28.75;49.07;100509.98;1624773;87;20194;-76
2021/07/25 10:03:35;;;;;;;;;;;;;;;28.84;48.92;100506.98;1617148;87;20184;-76
2021/07/25 10:06:22;;;;;;;;;;;;;;;28.92;49.04;100507.09;1607307;87;20853;-76
2021/07/25 10:08:50;;;;;;;;;;;;;;;28.96;49.06;100498.67;1623400;87;20148;-76
2021/07/25 10:11:20;;;;;;;;;;;;;;;29.00;49.22;100501.88;1629098;86;20167;-76
2021/07/25 10:13:50;;;;;;;;;;;;;;;29.02;48.87;100501.73;1623225;87;20193;-76
2021/07/25 10:16:20;;;;;;;;;;;;;;;29.09;48.93;100500.17;1620687;87;20210;-76
2021/07/25 10:18:49;;;;;;;;;;;;;;;29.19;48.95;100496.95;1625075;87;20446;-77
2021/07/25 10:21:15;;;;;;;;;;;;;;;29.28;49.06;100483.58;1620153;87;20479;-77
2021/07/25 10:23:54;;;;;;;;;;;;;;;29.31;48.80;100483.28;1622148;87;20135;-77
2021/07/25 10:26:28;;;;;;;;;;;;;;;29.31;48.64;100489.95;1642735;85;20465;-77
2021/07/25 10:28:57;;;;;;;;;;;;;;;29.41;48.77;100483.73;1658544;85;20571;-77
2021/07/25 10:31:24;;;;;;;;;;;;;;;29.51;48.70;100482.72;1664221;85;20210;-77
2021/07/25 10:33:54;;;;;;;;;;;;;;;29.52;48.46;100483.55;1661306;85;20164;-77
2021/07/25 10:36:21;;;;;;;;;;;;;;;29.50;48.44;100481.04;1665146;86;20220;-77
2021/07/25 10:38:48;;;;;;;;;;;;;;;29.45;48.35;100480.65;1661208;85;20208;-76
2021/07/25 10:41:23;;;;;;;;;;;;;;;29.49;48.29;100477.19;1667067;85;20280;-76
2021/07/25 10:43:50;;;;;;;;;;;;;;;29.60;48.49;100474.32;1639311;86;20510;-76
2021/07/25 10:46:18;;;;;;;;;;;;;;;29.74;48.17;100476.44;1660474;85;20212;-76
2021/07/25 10:49:05;;;;;;;;;;;;;;;29.85;48.12;100476.22;1665860;85;20491;-76
2021/07/25 10:51:36;;;;;;;;;;;;;;;29.96;47.99;100480.48;1664257;86;20548;-76
2021/07/25 10:54:23;;;;;;;;;;;;;;;30.07;47.77;100472.78;1664705;86;20177;-76
2021/07/25 10:57:04;;;;;;;;;;;;;;;30.17;47.85;100485.02;1663544;85;20590;-76
2021/07/25 10:59:40;;;;;;;;;;;;;;;30.27;47.68;100474.25;1657867;85;20591;-78
2021/07/25 11:02:17;;;;;;;;;;;;;;;30.35;47.51;100478.31;1664175;86;20495;-78
2021/07/25 11:04:52;;;;;;;;;;;;;;;30.40;47.46;100480.52;1658070;86;20948;-78
2021/07/25 11:07:27;;;;;;;;;;;;;;;30.41;47.50;100483.03;1653207;85;20639;-78
2021/07/25 11:10:11;;;;;;;;;;;;;;;30.40;47.12;100489.36;1667117;86;20786;-78
2021/07/25 11:12:51;;;;;;;;;;;;;;;30.37;47.30;100483.50;1666708;85;20456;-78
2021/07/25 11:15:34;;;;;;;;;;;;;;;30.45;47.28;100483.06;1661839;86;20126;-78
2021/07/25 11:18:05;;;;;;;;;;;;;;;30.55;47.32;100486.97;1666014;86;20405;-78
2021/07/25 11:20:39;;;;;;;;;;;;;;;30.61;47.24;100477.87;1660046;85;20157;-78
2021/07/25 11:23:15;;;;;;;;;;;;;;;30.62;47.03;100474.70;1660411;85;20168;-78
2021/07/25 11:25:41;;;;;;;;;;;;;;;30.64;47.00;100478.05;1663895;86;20608;-78
2021/07/25 11:28:08;;;;;;;;;;;;;;;30.66;47.09;100476.56;1663754;85;20263;-78
2021/07/25 11:30:55;;;;;;;;;;;;;;;30.71;46.96;100475.56;1661274;85;20430;-78
2021/07/25 11:33:43;;;;;;;;;;;;;;;30.66;46.71;100473.89;1656509;86;20534;-78
2021/07/25 11:36:18;;;;;;;;;;;;;;;30.56;46.68;100476.14;1664915;85;20519;-78
2021/07/25 11:38:49;;;;;;;;;;;;;;;30.52;46.78;100477.94;1663029;85;20544;-78
2021/07/25 11:41:20;;;;;;;;;;;;;;;30.53;46.96;100482.28;1659767;85;20450;-78
2021/07/25 11:44:00;;;;;;;;;;;;;;;30.55;46.62;100478.96;1661174;85;20170;-78
2021/07/25 11:46:39;;;;;;;;;;;;;;;30.53;46.70;100480.45;1642436;85;20510;-78
2021/07/25 11:49:20;;;;;;;;;;;;;;;30.51;46.55;100479.77;1661574;85;20448;-78
2021/07/25 11:51:57;;;;;;;;;;;;;;;30.54;46.62;100478.63;1664099;85;20478;-78
2021/07/25 11:54:35;;;;;;;;;;;;;;;30.61;46.68;100480.55;1666294;85;20222;-79
2021/07/25 11:57:24;;;;;;;;;;;;;;;30.64;46.60;100478.05;1658440;85;20519;-79
2021/07/25 11:59:56;;;;;;;;;;;;;;;30.73;46.70;100477.58;1660517;86;20497;-79
2021/07/25 12:02:27;;;;;;;;;;;;;;;30.73;46.37;100478.41;1665090;86;20471;-79
2021/07/25 12:04:57;;;;;;;;;;;;;;;30.76;46.52;100479.94;1662905;85;20646;-79
2021/07/25 12:07:31;;;;;;;;;;;;;;;30.80;46.41;100482.13;1658202;86;20545;-79
2021/07/25 12:09:57;;;;;;;;;;;;;;;30.74;46.23;100476.09;1655920;86;20444;-79
2021/07/25 12:12:26;;;;;;;;;;;;;;;30.69;46.21;100484.23;1648450;85;20431;-79
2021/07/25 12:14:58;;;;;;;;;;;;;;;30.68;46.32;100487.39;1653529;85;20191;-79
2021/07/25 12:17:49;;;;;;;;;;;;;;;30.59;46.26;100485.20;1659681;86;20540;-79
2021/07/25 12:20:24;;;;;;;;;;;;;;;30.60;46.23;100489.55;1655624;86;20262;-79
2021/07/25 12:22:56;;;;;;;;;;;;;;;30.55;46.02;100489.64;1665064;86;20515;-79
2021/07/25 12:25:25;;;;;;;;;;;;;;;30.39;46.10;100491.69;1666043;85;20661;-79
2021/07/25 12:28:08;;;;;;;;;;;;;;;30.24;45.96;100483.90;1666322;85;20181;-79
2021/07/25 12:30:50;;;;;;;;;;;;;;;30.22;46.01;100489.88;1665789;86;20155;-79
2021/07/25 12:33:30;;;;;;;;;;;;;;;30.15;46.04;100488.85;1663512;85;20531;-79
2021/07/25 12:35:58;;;;;;;;;;;;;;;30.08;46.00;100495.30;1667007;85;20192;-79
2021/07/25 12:38:24;;;;;;;;;;;;;;;30.04;45.95;100486.42;1666499;85;20518;-79
2021/07/25 12:40:55;;;;;;;;;;;;;;;30.01;45.82;100487.56;1666716;86;20659;-79
2021/07/25 12:43:23;;;;;;;;;;;;;;;30.02;45.85;100485.73;1666342;85;20256;-79
2021/07/25 12:45:52;;;;;;;;;;;;;;;30.06;45.80;100486.61;1670053;85;20610;-79
2021/07/25 12:48:30;;;;;;;;;;;;;;;30.08;45.66;100487.30;1657320;84;20555;-79